Time;durP1;ratioP1;P1;durP2;ratioP2;P2;SDS_P1;SDS_P2;PMS_P1;PMS_P2;Temp;Humidity;BMP_temperature;BMP_pressure;BME280_temperature;BME280_humidity;BME280_pressure;Samples;Min_cycle;Max_cycle;Signal;HPM_P1;HPM_P2
2021/05/02 00:04:45;;;;;;;10.27;6.30;;;;;;;9.20;100.00;98443.94;10335948;28;20609;-75
2021/05/02 00:10:05;;;;;;;14.57;8.03;;;;;;;9.19;100.00;98450.59;10334825;28;20184;-74
2021/05/02 00:15:26;;;;;;;18.33;8.90;;;;;;;9.17;100.00;98433.75;10334211;28;20185;-74
2021/05/02 00:20:46;;;;;;;12.77;6.93;;;;;;;9.10;100.00;98439.31;10316366;28;20641;-74
2021/05/02 00:26:06;;;;;;;18.00;5.53;;;;;;;9.16;100.00;98457.69;10335148;28;20252;-74
2021/05/02 00:31:25;;;;;;;12.60;8.00;;;;;;;9.03;100.00;98469.53;10333289;28;20663;-74
2021/05/02 00:36:44;;;;;;;25.73;8.70;;;;;;;8.89;100.00;98466.91;10334649;28;20181;-78
2021/05/02 00:42:07;;;;;;;16.17;10.10;;;;;;;8.74;100.00;98474.44;10333989;28;20256;-76
2021/05/02 00:47:39;;;;;;;19.13;10.20;;;;;;;8.62;100.00;98476.09;10332726;28;20221;-77
2021/05/02 00:53:01;;;;;;;19.37;10.80;;;;;;;8.19;100.00;98496.66;10333895;28;20205;-75
2021/05/02 00:58:30;;;;;;;16.63;10.67;;;;;;;8.08;100.00;98491.19;10333917;28;20201;-76
2021/05/02 01:03:51;;;;;;;19.57;10.17;;;;;;;7.95;100.00;98502.97;10332667;28;20182;-77
2021/05/02 01:09:15;;;;;;;17.10;9.10;;;;;;;7.81;100.00;98516.72;10333801;28;20177;-76
2021/05/02 01:14:37;;;;;;;11.53;7.50;;;;;;;7.66;100.00;98522.59;10331770;28;20675;-77
2021/05/02 01:19:56;;;;;;;8.77;6.43;;;;;;;7.57;100.00;98525.75;10333290;28;20189;-74
2021/05/02 01:25:15;;;;;;;14.57;7.87;;;;;;;7.47;100.00;98531.25;10332167;28;20189;-74
2021/05/02 01:30:34;;;;;;;13.20;7.97;;;;;;;7.25;100.00;98537.84;10332136;28;20177;-76
2021/05/02 01:35:55;;;;;;;11.33;6.77;;;;;;;7.14;100.00;98546.06;10333228;28;20181;-74
2021/05/02 01:41:14;;;;;;;7.47;6.10;;;;;;;7.31;100.00;98555.44;10333114;28;20625;-77
2021/05/02 01:46:38;;;;;;;25.63;8.43;;;;;;;7.25;100.00;98548.81;10331263;28;20229;-75
2021/05/02 01:51:59;;;;;;;11.00;8.53;;;;;;;7.13;100.00;98549.97;10332700;28;20600;-74
2021/05/02 01:57:22;;;;;;;15.67;8.87;;;;;;;7.18;100.00;98559.75;10332735;28;20625;-76
2021/05/02 02:02:42;;;;;;;13.87;8.17;;;;;;;7.13;100.00;98565.59;10331058;28;20586;-77
2021/05/02 02:08:01;;;;;;;11.57;6.10;;;;;;;7.17;100.00;98572.66;10315711;28;20185;-76
2021/05/02 02:13:21;;;;;;;11.97;6.20;;;;;;;7.14;100.00;98575.38;10332168;28;20209;-74
2021/05/02 02:18:41;;;;;;;13.67;8.53;;;;;;;7.25;100.00;98576.16;10331208;28;20177;-76
2021/05/02 02:24:02;;;;;;;8.80;6.30;;;;;;;7.12;100.00;98581.22;10315384;28;20182;-76
2021/05/02 02:29:22;;;;;;;6.70;4.90;;;;;;;7.10;100.00;98590.22;10331066;28;20177;-73
2021/05/02 02:34:49;;;;;;;17.13;7.77;;;;;;;6.98;100.00;98590.56;10335583;28;20209;-74
2021/05/02 02:40:10;;;;;;;7.23;5.53;;;;;;;7.00;100.00;98593.72;10339312;28;20605;-74
2021/05/02 02:45:33;;;;;;;8.50;5.30;;;;;;;7.06;100.00;98592.16;10337543;28;20225;-74
2021/05/02 02:50:55;;;;;;;12.23;8.13;;;;;;;7.05;100.00;98605.06;10338688;28;20213;-76
2021/05/02 02:56:18;;;;;;;8.67;7.53;;;;;;;7.00;100.00;98599.19;10338644;28;20249;-74
2021/05/02 03:01:41;;;;;;;9.07;6.23;;;;;;;7.00;100.00;98610.88;10316561;28;20181;-73
2021/05/02 03:07:00;;;;;;;11.87;5.80;;;;;;;6.98;100.00;98601.50;10338280;28;20185;-73
2021/05/02 03:12:21;;;;;;;17.20;6.80;;;;;;;7.03;100.00;98604.66;10337553;28;20700;-74
2021/05/02 03:17:43;;;;;;;8.93;6.20;;;;;;;6.99;100.00;98603.06;10336305;28;20260;-77
2021/05/02 03:23:07;;;;;;;9.97;7.10;;;;;;;6.98;100.00;98612.44;10337720;28;20177;-76
2021/05/02 03:28:54;;;;;;;11.80;6.37;;;;;;;7.14;100.00;98614.44;10315835;28;20178;-77
2021/05/02 03:34:16;;;;;;;8.87;8.00;;;;;;;7.06;100.00;98625.78;10336620;28;20209;-77
2021/05/02 03:39:37;;;;;;;23.43;8.23;;;;;;;6.99;100.00;98631.19;10336996;28;20181;-74
2021/05/02 03:44:56;;;;;;;18.53;6.93;;;;;;;6.90;100.00;98641.72;10317781;28;20237;-77
2021/05/02 03:50:15;;;;;;;12.87;6.40;;;;;;;6.93;100.00;98640.19;10343642;28;20178;-75
2021/05/02 03:55:46;;;;;;;9.23;6.90;;;;;;;6.89;100.00;98651.09;10336290;28;20189;-73
2021/05/02 04:01:05;;;;;;;6.03;5.60;;;;;;;6.84;100.00;98659.66;10327687;28;20233;-74
2021/05/02 04:06:27;;;;;;;9.60;6.23;;;;;;;6.98;100.00;98656.19;10336009;28;20206;-75
2021/05/02 04:11:46;;;;;;;7.13;6.37;;;;;;;6.88;100.00;98667.88;10335703;28;20217;-74
2021/05/02 04:17:07;;;;;;;6.53;5.13;;;;;;;6.85;100.00;98671.38;10334327;28;20639;-73
2021/05/02 04:22:30;;;;;;;6.80;5.40;;;;;;;6.83;100.00;98687.38;10335337;28;20173;-74
2021/05/02 04:27:49;;;;;;;7.50;6.80;;;;;;;6.81;100.00;98697.91;10335181;28;20641;-77
2021/05/02 04:33:08;;;;;;;13.77;5.40;;;;;;;6.83;100.00;98701.06;10333382;28;20205;-75
2021/05/02 04:38:27;;;;;;;6.13;4.23;;;;;;;6.80;100.00;98715.47;10334817;28;20186;-76
2021/05/02 04:43:46;;;;;;;12.43;4.67;;;;;;;6.83;100.00;98712.00;10334557;28;20572;-75
2021/05/02 04:49:09;;;;;;;12.80;8.27;;;;;;;6.79;100.00;98722.91;10333760;28;20374;-75
2021/05/02 04:54:27;;;;;;;11.27;6.37;;;;;;;6.75;100.00;98730.28;10333647;28;20205;-74
2021/05/02 04:59:46;;;;;;;13.90;8.33;;;;;;;6.74;100.00;98733.41;10332461;28;20201;-76
2021/05/02 05:05:06;;;;;;;15.60;8.30;;;;;;;6.80;100.00;98738.16;10333864;28;20178;-75
2021/05/02 05:10:25;;;;;;;8.27;5.47;;;;;;;6.80;100.00;98751.03;10333750;28;20173;-77
2021/05/02 05:15:44;;;;;;;18.57;9.07;;;;;;;6.85;100.00;98756.13;10332075;28;20546;-76
2021/05/02 05:21:03;;;;;;;11.00;6.67;;;;;;;7.00;100.00;98763.25;10333336;28;20181;-75
2021/05/02 05:26:23;;;;;;;8.47;7.60;;;;;;;6.93;100.00;98769.44;10341472;28;20657;-74
2021/05/02 05:31:42;;;;;;;6.87;4.93;;;;;;;7.07;100.00;98776.94;10331821;28;20429;-74
2021/05/02 05:37:00;;;;;;;6.43;5.87;;;;;;;7.14;100.00;98780.50;10333249;28;20173;-74
2021/05/02 05:42:19;;;;;;;8.10;4.43;;;;;;;7.26;100.00;98788.38;10310673;28;20165;-74
2021/05/02 05:47:38;;;;;;;6.90;6.30;;;;;;;7.46;100.00;98792.38;10331378;28;20626;-75
2021/05/02 05:52:58;;;;;;;9.63;5.60;;;;;;;7.44;100.00;98797.44;10332810;28;20296;-74
2021/05/02 05:58:17;;;;;;;12.03;7.30;;;;;;;7.48;100.00;98800.97;10332832;28;20205;-74
2021/05/02 06:03:36;;;;;;;8.33;5.20;;;;;;;7.53;100.00;98801.38;10331195;28;20174;-76
2021/05/02 06:08:55;;;;;;;9.93;6.20;;;;;;;7.62;100.00;98810.00;10335545;28;20185;-74
2021/05/02 06:14:14;;;;;;;8.93;5.83;;;;;;;7.75;100.00;98821.41;10338534;28;20216;-75
2021/05/02 06:19:33;;;;;;;6.20;4.73;;;;;;;7.80;100.00;98827.28;10349389;28;20181;-77
2021/05/02 06:24:53;;;;;;;7.30;4.57;;;;;;;7.87;100.00;98832.78;10351960;28;20272;-76
2021/05/02 06:30:12;;;;;;;13.83;5.93;;;;;;;7.87;100.00;98846.47;10322973;28;20173;-77
2021/05/02 06:35:31;;;;;;;6.63;5.30;;;;;;;7.80;100.00;98845.66;10338853;28;20221;-76
2021/05/02 06:40:50;;;;;;;9.20;5.87;;;;;;;7.75;100.00;98844.09;10339094;28;20663;-76
2021/05/02 06:46:26;;;;;;;9.63;6.20;;;;;;;7.83;100.00;98850.38;10330796;28;20217;-75
2021/05/02 06:51:45;;;;;;;6.40;5.33;;;;;;;7.92;100.00;98857.84;10338804;28;20213;-76
2021/05/02 06:57:05;;;;;;;7.90;5.27;;;;;;;8.05;100.00;98859.03;10316388;28;20205;-74
2021/05/02 07:02:24;;;;;;;6.57;4.00;;;;;;;8.18;100.00;98864.97;10337295;28;20189;-75
2021/05/02 07:07:43;;;;;;;8.37;5.40;;;;;;;8.13;100.00;98865.34;10318993;28;20190;-76
2021/05/02 07:13:02;;;;;;;16.93;5.70;;;;;;;8.17;100.00;98868.88;10337800;28;20677;-77
2021/05/02 07:18:21;;;;;;;6.70;6.07;;;;;;;8.51;100.00;98872.84;10336014;28;20624;-75
2021/05/02 07:23:45;;;;;;;4.93;3.50;;;;;;;8.67;100.00;98878.72;10317832;28;20540;-76
2021/05/02 07:29:04;;;;;;;8.90;3.67;;;;;;;8.90;100.00;98875.19;10319627;28;20181;-76
2021/05/02 07:34:24;;;;;;;5.30;3.80;;;;;;;9.08;100.00;98889.69;10336727;28;20237;-75
2021/05/02 07:39:44;;;;;;;8.77;4.37;;;;;;;9.19;100.00;98889.66;10317953;28;20185;-75
2021/05/02 07:45:04;;;;;;;7.80;5.70;;;;;;;9.44;100.00;98898.66;10335336;28;20232;-74
2021/05/02 07:50:23;;;;;;;6.20;4.30;;;;;;;9.55;100.00;98897.44;10336399;28;20169;-77
2021/05/02 07:55:42;;;;;;;5.03;3.80;;;;;;;10.32;100.00;98901.47;10316365;28;20194;-75
2021/05/02 08:01:02;;;;;;;6.00;4.80;;;;;;;10.88;100.00;98903.81;10334812;28;20185;-75
2021/05/02 08:06:22;;;;;;;6.43;5.43;;;;;;;10.62;100.00;98912.66;10335901;28;20181;-77
2021/05/02 08:11:41;;;;;;;9.53;5.40;;;;;;;10.63;100.00;98916.97;10316247;28;20201;-76
2021/05/02 08:17:01;;;;;;;4.90;4.50;;;;;;;10.32;100.00;98919.91;10326442;28;20177;-76
2021/05/02 08:22:20;;;;;;;5.50;3.50;;;;;;;10.77;100.00;98914.13;10335450;28;20178;-77
2021/05/02 08:27:39;;;;;;;5.93;3.77;;;;;;;10.56;92.41;98930.78;10315333;28;20185;-74
2021/05/02 08:32:58;;;;;;;8.53;5.43;;;;;;;10.36;94.88;98929.72;10332508;28;20205;-74
2021/05/02 08:38:17;;;;;;;4.80;3.00;;;;;;;9.97;93.31;98935.75;10334450;28;20177;-74
2021/05/02 08:43:37;;;;;;;5.40;3.03;;;;;;;10.02;92.06;98933.41;10334234;28;20215;-74
2021/05/02 08:48:57;;;;;;;5.40;4.10;;;;;;;10.32;91.82;98949.38;10332512;28;20591;-74
2021/05/02 08:54:17;;;;;;;4.73;4.33;;;;;;;10.29;87.47;98947.44;10318853;28;20213;-74
2021/05/02 08:59:36;;;;;;;6.17;3.83;;;;;;;10.65;93.09;98950.38;10332994;28;20296;-75
2021/05/02 09:04:57;;;;;;;13.07;4.20;;;;;;;10.88;88.09;98958.88;10333970;28;20311;-75
2021/05/02 09:10:18;;;;;;;6.50;4.37;;;;;;;11.21;90.35;98964.50;10318924;28;20185;-76
2021/05/02 09:15:37;;;;;;;7.33;4.33;;;;;;;10.99;86.84;98961.53;10331730;28;20209;-76
2021/05/02 09:20:56;;;;;;;3.17;2.87;;;;;;;10.65;85.06;98950.38;10333365;28;20209;-76
2021/05/02 09:26:26;;;;;;;4.23;3.63;;;;;;;11.54;86.39;98946.53;10340278;28;20173;-78
2021/05/02 09:31:47;;;;;;;6.90;5.40;;;;;;;12.64;79.03;98954.63;10331801;28;20209;-75
2021/05/02 09:37:08;;;;;;;6.00;4.10;;;;;;;11.66;68.39;98957.03;10326246;28;20177;-77
2021/05/02 09:42:32;;;;;;;4.10;2.90;;;;;;;11.99;63.21;98965.34;10314121;28;20173;-75
2021/05/02 09:47:51;;;;;;;5.37;4.87;;;;;;;11.69;65.51;98954.22;10339543;28;20225;-74
2021/05/02 09:53:15;;;;;;;5.60;4.40;;;;;;;11.81;67.62;98959.25;10340858;28;20299;-74
2021/05/02 09:58:34;;;;;;;10.30;4.80;;;;;;;12.31;60.62;98957.47;10339503;28;20213;-73
2021/05/02 10:03:53;;;;;;;5.93;4.33;;;;;;;11.91;60.88;98958.34;10351557;28;20174;-75
2021/05/02 10:09:16;;;;;;;7.43;4.87;;;;;;;11.24;64.93;98977.47;10340357;28;20178;-75
2021/05/02 10:14:42;;;;;;;7.23;5.13;;;;;;;11.19;63.66;98979.84;10338670;28;20209;-73
2021/05/02 10:20:03;;;;;;;5.77;3.57;;;;;;;12.90;54.33;98970.47;10339356;28;20221;-75
2021/05/02 10:25:22;;;;;;;6.83;4.00;;;;;;;13.39;52.80;98975.22;10339667;28;20256;-74
2021/05/02 10:30:44;;;;;;;9.37;3.93;;;;;;;13.75;55.96;98968.63;10338390;28;20185;-76
2021/05/02 10:36:22;;;;;;;3.63;3.33;;;;;;;14.13;48.92;98973.47;10322633;28;20644;-74
2021/05/02 10:41:45;;;;;;;5.13;4.60;;;;;;;14.25;45.95;98983.88;10339245;28;20177;-77
2021/05/02 10:47:05;;;;;;;6.00;4.27;;;;;;;13.74;47.39;98975.38;10336879;28;20229;-76
2021/05/02 10:52:32;;;;;;;3.17;2.90;;;;;;;13.46;45.67;98977.84;10323442;28;20200;-75
2021/05/02 10:58:03;;;;;;;3.67;2.50;;;;;;;14.38;43.86;98995.84;10337838;28;20217;-74
2021/05/02 11:03:40;;;;;;;2.53;2.33;;;;;;;13.73;45.05;99001.44;10314927;28;20178;-74
2021/05/02 11:09:00;;;;;;;3.10;2.40;;;;;;;13.90;45.43;99001.13;10320982;28;20181;-75
2021/05/02 11:14:25;;;;;;;2.33;1.87;;;;;;;13.67;46.95;99003.91;10321360;28;20311;-74
2021/05/02 11:19:44;;;;;;;6.47;2.97;;;;;;;13.63;46.42;98989.38;10337942;28;20185;-74
2021/05/02 11:25:06;;;;;;;5.30;2.00;;;;;;;14.12;44.39;98993.25;10330136;28;20181;-73
2021/05/02 11:30:26;;;;;;;2.10;1.87;;;;;;;13.40;47.15;99004.41;10335797;28;20193;-74
2021/05/02 11:35:52;;;;;;;2.70;1.93;;;;;;;13.24;43.71;99007.03;10317593;28;20216;-73
2021/05/02 11:41:12;;;;;;;2.77;2.57;;;;;;;14.49;47.82;99004.75;10337015;28;20181;-73
2021/05/02 11:46:31;;;;;;;3.77;2.63;;;;;;;13.93;42.40;99014.13;10351467;28;20674;-76
2021/05/02 11:51:57;;;;;;;3.03;2.37;;;;;;;13.62;43.02;99023.75;10362116;28;20208;-74
2021/05/02 11:57:16;;;;;;;3.20;2.47;;;;;;;13.36;45.87;99017.47;10376909;28;20204;-76
2021/05/02 12:02:43;;;;;;;3.73;2.60;;;;;;;12.72;44.74;99027.84;10375512;28;20177;-74
2021/05/02 12:08:11;;;;;;;2.90;2.67;;;;;;;12.71;43.73;99012.50;10376386;28;20181;-73
2021/05/02 12:13:34;;;;;;;2.23;2.00;;;;;;;14.55;42.08;99014.09;10375022;28;20686;-74
2021/05/02 12:19:07;;;;;;;7.73;2.70;;;;;;;15.13;42.44;99009.22;10374808;28;20188;-76
2021/05/02 12:24:28;;;;;;;9.10;2.00;;;;;;;16.08;44.02;99025.09;10375739;28;20184;-75
2021/05/02 12:29:54;;;;;;;4.80;2.90;;;;;;;15.22;36.95;99034.38;10532044;27;20721;-75
2021/05/02 12:35:13;;;;;;;3.50;2.47;;;;;;;15.45;42.25;99022.38;10533763;28;20194;-75
2021/05/02 12:40:32;;;;;;;7.20;3.40;;;;;;;14.68;43.78;99026.88;10533571;28;20178;-75
2021/05/02 12:45:51;;;;;;;3.20;2.30;;;;;;;13.92;45.90;99036.66;10530597;28;20202;-74
2021/05/02 12:51:27;;;;;;;4.40;2.90;;;;;;;15.99;42.81;99043.59;10532973;28;20166;-74
2021/05/02 12:56:59;;;;;;;3.23;2.93;;;;;;;15.51;39.49;99045.59;10532927;28;20174;-74
2021/05/02 13:02:28;;;;;;;4.00;3.03;;;;;;;13.85;44.40;99043.09;10531294;28;20762;-74
2021/05/02 13:07:49;;;;;;;1.60;1.50;;;;;;;13.15;46.22;99050.97;10532139;28;20214;-73
2021/05/02 13:13:19;;;;;;;2.43;2.00;;;;;;;12.28;45.79;99049.31;10515654;28;20621;-74
2021/05/02 13:18:38;;;;;;;2.80;2.60;;;;;;;12.71;46.31;99050.38;10508938;28;20179;-74
2021/05/02 13:24:06;;;;;;;3.93;3.13;;;;;;;12.88;47.14;99047.41;10509307;28;20668;-74
2021/05/02 13:29:25;;;;;;;3.20;2.47;;;;;;;12.47;48.24;99052.22;10506451;28;20219;-77
2021/05/02 13:34:44;;;;;;;6.03;2.23;;;;;;;12.22;46.63;99068.28;10493642;28;20554;-74
2021/05/02 13:40:03;;;;;;;4.17;2.30;;;;;;;13.26;47.50;99074.47;10490165;28;20179;-74
2021/05/02 13:45:24;;;;;;;3.73;2.73;;;;;;;13.93;45.53;99065.88;10480713;28;20203;-74
2021/05/02 13:50:43;;;;;;;3.73;3.07;;;;;;;14.07;45.88;99074.69;10478278;28;20576;-77
2021/05/02 13:56:02;;;;;;;2.60;2.13;;;;;;;14.90;44.00;99069.50;10485444;28;20190;-74
2021/05/02 14:01:23;;;;;;;2.30;2.20;;;;;;;14.09;38.15;99074.28;10481327;28;20180;-73
2021/05/02 14:06:42;;;;;;;2.67;2.27;;;;;;;13.54;44.40;99085.88;10482652;28;20207;-74
2021/05/02 14:12:01;;;;;;;4.00;2.90;;;;;;;13.95;43.33;99091.13;10474865;28;20578;-75
2021/05/02 14:17:20;;;;;;;2.13;1.80;;;;;;;14.08;42.53;99089.31;10469615;28;20178;-74
2021/05/02 14:22:39;;;;;;;2.67;2.40;;;;;;;13.47;42.87;99095.47;10471029;28;20204;-74
2021/05/02 14:27:59;;;;;;;2.00;1.73;;;;;;;14.13;44.43;99102.69;10472486;28;20227;-74
2021/05/02 14:33:20;;;;;;;6.00;2.50;;;;;;;13.08;43.29;99112.59;10483641;28;20187;-74
2021/05/02 14:38:40;;;;;;;2.80;1.63;;;;;;;13.45;44.94;99109.69;10493151;28;20198;-74
2021/05/02 14:43:59;;;;;;;2.70;2.13;;;;;;;14.69;42.20;99105.19;10499541;28;20172;-76
2021/05/02 14:49:18;;;;;;;2.97;1.10;;;;;;;15.04;38.33;99101.69;10484364;28;20207;-76
2021/05/02 14:54:38;;;;;;;3.83;1.00;;;;;;;13.07;40.14;99135.13;10468305;28;20187;-75
2021/05/02 14:59:58;;;;;;;2.37;1.83;;;;;;;12.33;42.76;99129.63;10475035;28;20178;-75
2021/05/02 15:05:17;;;;;;;1.33;1.23;;;;;;;13.66;42.74;99117.69;10478684;28;20199;-74
2021/05/02 15:10:35;;;;;;;2.47;2.27;;;;;;;14.26;37.09;99117.47;10457034;28;20199;-75
2021/05/02 15:15:58;;;;;;;2.47;1.43;;;;;;;13.79;39.08;99124.19;10455763;28;20622;-75
2021/05/02 15:21:17;;;;;;;1.67;1.57;;;;;;;13.54;39.92;99124.56;10458026;28;20183;-74
2021/05/02 15:26:36;;;;;;;1.83;1.67;;;;;;;12.63;42.83;99126.16;10457199;28;20227;-74
2021/05/02 15:31:56;;;;;;;2.70;1.50;;;;;;;12.50;43.04;99128.66;10456373;28;20661;-75
2021/05/02 15:37:16;;;;;;;1.70;1.60;;;;;;;13.40;41.06;99128.75;10457441;28;20193;-74
2021/05/02 15:42:35;;;;;;;1.33;0.93;;;;;;;13.06;41.42;99130.78;10457188;28;20179;-74
2021/05/02 15:47:55;;;;;;;2.10;1.47;;;;;;;14.35;40.67;99129.56;10454303;28;20243;-75
2021/05/02 15:53:14;;;;;;;1.43;1.27;;;;;;;13.87;42.95;99128.38;10456716;28;20604;-75
2021/05/02 15:58:33;;;;;;;5.90;1.70;;;;;;;14.56;40.54;99129.16;10456494;28;20180;-75
2021/05/02 16:03:53;;;;;;;1.57;1.43;;;;;;;15.47;39.33;99128.06;10454886;28;20167;-75
2021/05/02 16:09:12;;;;;;;1.73;1.63;;;;;;;13.93;38.58;99130.28;10455813;28;20246;-76
2021/05/02 16:14:31;;;;;;;1.77;1.50;;;;;;;13.98;40.48;99127.00;10454995;28;20972;-76
2021/05/02 16:19:50;;;;;;;2.80;1.90;;;;;;;13.00;41.87;99137.97;10456152;28;20175;-76
2021/05/02 16:25:10;;;;;;;2.07;1.63;;;;;;;13.47;39.59;99136.94;10455819;28;20179;-75
2021/05/02 16:30:28;;;;;;;2.33;1.40;;;;;;;12.44;41.11;99144.09;10454675;28;20250;-74
2021/05/02 16:35:47;;;;;;;2.03;1.70;;;;;;;12.00;43.73;99146.09;10455840;28;20258;-76
2021/05/02 16:41:06;;;;;;;2.33;1.70;;;;;;;12.01;44.66;99148.47;10454598;28;20175;-74
2021/05/02 16:46:25;;;;;;;1.30;1.13;;;;;;;12.01;41.87;99147.66;10454294;28;20565;-74
2021/05/02 16:51:45;;;;;;;1.73;1.60;;;;;;;11.82;44.30;99147.44;10455328;28;20180;-74
2021/05/02 16:57:04;;;;;;;1.30;1.07;;;;;;;11.59;43.54;99159.00;10455519;28;20193;-74
2021/05/02 17:02:23;;;;;;;2.40;1.40;;;;;;;11.33;45.11;99156.00;10452944;28;20179;-74
2021/05/02 17:07:44;;;;;;;2.23;1.40;;;;;;;11.11;46.08;99166.34;10454088;28;20207;-75
2021/05/02 17:13:05;;;;;;;1.60;1.20;;;;;;;11.08;46.51;99165.56;10456054;28;20179;-75
2021/05/02 17:18:25;;;;;;;3.80;1.30;;;;;;;10.90;49.27;99170.38;10461631;28;20588;-75
2021/05/02 17:23:44;;;;;;;3.33;2.73;;;;;;;10.80;49.08;99185.75;10462709;28;20175;-73
2021/05/02 17:29:05;;;;;;;2.33;1.90;;;;;;;10.91;48.58;99185.69;10461252;28;20616;-73
2021/05/02 17:34:24;;;;;;;3.30;2.87;;;;;;;10.90;50.51;99193.19;10461319;28;20215;-72
2021/05/02 17:39:47;;;;;;;2.60;2.40;;;;;;;10.75;51.94;99186.13;10460903;28;20183;-72
2021/05/02 17:45:09;;;;;;;2.50;1.50;;;;;;;10.65;51.94;99203.47;10459540;28;20279;-75
2021/05/02 17:50:29;;;;;;;2.23;2.03;;;;;;;11.88;48.71;99203.69;10461489;28;20175;-75
2021/05/02 17:55:48;;;;;;;2.20;1.77;;;;;;;11.62;47.73;99207.03;10461397;28;20622;-75
2021/05/02 18:01:08;;;;;;;3.33;1.60;;;;;;;10.79;50.52;99219.13;10459953;28;20618;-75
2021/05/02 18:06:27;;;;;;;2.40;1.53;;;;;;;10.15;53.26;99212.16;10459753;28;20479;-75
2021/05/02 18:11:47;;;;;;;2.17;1.97;;;;;;;10.07;53.36;99218.84;10460651;28;20553;-74
2021/05/02 18:17:07;;;;;;;10.30;1.50;;;;;;;10.32;52.61;99225.13;10458374;28;20184;-74
2021/05/02 18:22:26;;;;;;;3.20;2.80;;;;;;;10.24;53.31;99226.28;10460428;28;20184;-75
2021/05/02 18:27:46;;;;;;;4.00;2.83;;;;;;;10.05;54.05;99243.19;10459453;28;20231;-75
2021/05/02 18:33:05;;;;;;;2.10;2.00;;;;;;;9.88;54.21;99251.38;10458771;28;20255;-75
2021/05/02 18:38:27;;;;;;;1.80;1.67;;;;;;;9.65;55.85;99253.69;10459812;28;20614;-74
2021/05/02 18:43:46;;;;;;;1.67;1.57;;;;;;;9.57;55.81;99263.84;10459632;28;20179;-73
2021/05/02 18:49:05;;;;;;;2.63;2.43;;;;;;;9.45;56.69;99263.44;10458375;28;20211;-75
2021/05/02 18:54:25;;;;;;;2.17;1.13;;;;;;;9.19;57.90;99263.75;10459224;28;20183;-74
2021/05/02 18:59:44;;;;;;;15.87;7.50;;;;;;;9.16;58.66;99275.47;10457758;28;20167;-73
2021/05/02 19:05:04;;;;;;;7.50;3.67;;;;;;;9.04;60.16;99289.53;10457539;28;20180;-73
2021/05/02 19:10:24;;;;;;;8.80;5.80;;;;;;;8.82;61.28;99301.53;10458466;28;20199;-74
2021/05/02 19:15:43;;;;;;;11.77;4.43;;;;;;;8.58;62.72;99301.38;10456937;28;20614;-73
2021/05/02 19:21:02;;;;;;;2.93;2.37;;;;;;;8.02;65.66;99311.84;10458165;28;20619;-72
2021/05/02 19:26:21;;;;;;;2.47;2.30;;;;;;;7.74;66.55;99318.16;10457448;28;20588;-72
2021/05/02 19:31:40;;;;;;;2.53;2.33;;;;;;;7.55;68.26;99321.88;10455319;28;20181;-74
2021/05/02 19:36:59;;;;;;;2.50;1.83;;;;;;;7.47;68.79;99322.94;10456785;28;20179;-75
2021/05/02 19:42:18;;;;;;;2.40;1.70;;;;;;;7.31;69.06;99329.75;10457467;28;20175;-73
2021/05/02 19:47:37;;;;;;;3.80;1.90;;;;;;;7.15;70.60;99332.69;10455455;28;20207;-75
2021/05/02 19:52:56;;;;;;;1.53;1.17;;;;;;;7.00;71.55;99343.81;10457039;28;20196;-74
2021/05/02 19:58:16;;;;;;;1.73;1.63;;;;;;;6.99;72.48;99342.22;10456914;28;20175;-75
2021/05/02 20:03:35;;;;;;;1.93;1.73;;;;;;;6.92;72.26;99346.81;10455325;28;20183;-74
2021/05/02 20:08:55;;;;;;;3.20;2.03;;;;;;;6.76;72.97;99351.66;10455893;28;20211;-75
2021/05/02 20:14:14;;;;;;;2.43;2.00;;;;;;;6.68;73.31;99353.47;10455072;28;20548;-74
2021/05/02 20:19:33;;;;;;;2.20;1.50;;;;;;;6.65;74.16;99346.03;10456207;28;20183;-74
2021/05/02 20:24:52;;;;;;;1.90;1.80;;;;;;;6.38;76.51;99355.34;10454987;28;20187;-74
2021/05/02 20:30:13;;;;;;;1.87;1.77;;;;;;;6.30;78.12;99352.84;10454788;28;20187;-74
2021/05/02 20:35:33;;;;;;;3.33;2.67;;;;;;;6.19;79.97;99356.53;10454947;28;20195;-74
2021/05/02 20:40:53;;;;;;;1.83;1.60;;;;;;;6.21;79.91;99368.69;10455767;28;20175;-74
2021/05/02 20:46:11;;;;;;;8.63;2.03;;;;;;;6.09;79.05;99370.81;10453322;28;20211;-75
2021/05/02 20:51:31;;;;;;;2.53;2.20;;;;;;;6.01;79.54;99369.88;10462391;28;20204;-75
2021/05/02 20:56:50;;;;;;;3.13;2.50;;;;;;;5.84;80.84;99378.53;10462797;28;20215;-75
2021/05/02 21:02:10;;;;;;;2.80;1.67;;;;;;;5.78;81.13;99373.72;10462375;28;20179;-75
2021/05/02 21:07:30;;;;;;;2.80;2.10;;;;;;;5.67;81.38;99383.63;10463191;28;20215;-75
2021/05/02 21:12:49;;;;;;;3.97;2.43;;;;;;;5.60;82.18;99386.22;10463197;28;20726;-75
2021/05/02 21:18:08;;;;;;;1.60;1.50;;;;;;;5.67;81.98;99384.41;10461593;28;20661;-74
2021/05/02 21:23:27;;;;;;;2.00;1.80;;;;;;;5.70;81.45;99386.41;10462834;28;20612;-76
2021/05/02 21:28:46;;;;;;;1.30;1.20;;;;;;;5.57;82.28;99389.63;10461859;28;20231;-74
2021/05/02 21:34:06;;;;;;;7.43;2.17;;;;;;;5.56;81.47;99394.31;10461703;28;20180;-73
2021/05/02 21:39:26;;;;;;;1.40;1.23;;;;;;;5.59;80.49;99388.13;10462080;28;20207;-74
2021/05/02 21:44:45;;;;;;;1.77;1.50;;;;;;;5.55;81.06;99398.19;10459623;28;20179;-73
2021/05/02 21:50:05;;;;;;;1.07;0.97;;;;;;;5.54;81.10;99404.78;10461107;28;20289;-73
2021/05/02 21:55:24;;;;;;;1.80;1.53;;;;;;;5.55;80.44;99411.84;10461586;28;20179;-74
2021/05/02 22:00:47;;;;;;;1.50;1.20;;;;;;;5.41;82.72;99426.34;10458492;28;20180;-72
2021/05/02 22:06:07;;;;;;;1.70;1.60;;;;;;;5.28;84.62;99433.84;10461214;28;20242;-73
2021/05/02 22:11:26;;;;;;;2.90;1.63;;;;;;;5.30;84.11;99433.47;10460887;28;20544;-74
2021/05/02 22:16:45;;;;;;;1.70;1.60;;;;;;;5.33;83.26;99425.38;10459391;28;20179;-75
2021/05/02 22:22:03;;;;;;;1.73;1.63;;;;;;;5.26;83.78;99432.59;10460535;28;20184;-74
2021/05/02 22:27:22;;;;;;;3.60;2.00;;;;;;;5.11;85.41;99442.41;10459964;28;20239;-74
2021/05/02 22:32:41;;;;;;;2.97;1.80;;;;;;;5.10;84.91;99442.75;10457867;28;20179;-74
2021/05/02 22:38:01;;;;;;;5.80;3.07;;;;;;;4.92;86.64;99447.00;10459856;28;20567;-73
2021/05/02 22:43:20;;;;;;;2.73;2.53;;;;;;;4.72;88.39;99448.84;10458861;28;20179;-74
2021/05/02 22:48:40;;;;;;;1.97;1.00;;;;;;;4.57;90.02;99451.59;10456519;28;20206;-73
2021/05/02 22:53:59;;;;;;;2.97;2.17;;;;;;;4.52;89.88;99451.03;10459343;28;20184;-74
2021/05/02 22:59:18;;;;;;;1.80;1.70;;;;;;;4.42;92.68;99460.53;10456630;28;20266;-72
2021/05/02 23:04:37;;;;;;;1.63;0.80;;;;;;;4.40;91.92;99462.81;10457905;28;20625;-73
2021/05/02 23:09:56;;;;;;;1.10;1.00;;;;;;;4.47;90.74;99471.16;10457247;28;20207;-75
2021/05/02 23:15:16;;;;;;;4.80;2.23;;;;;;;4.45;90.26;99467.97;10457174;28;20250;-73
2021/05/02 23:20:36;;;;;;;2.60;1.57;;;;;;;4.46;89.04;99469.56;10457262;28;20602;-74
2021/05/02 23:25:55;;;;;;;2.23;1.20;;;;;;;4.44;89.29;99469.13;10457530;28;20219;-73
2021/05/02 23:31:14;;;;;;;1.57;1.47;;;;;;;4.40;89.03;99470.97;10456513;28;20622;-74
2021/05/02 23:36:33;;;;;;;2.43;2.10;;;;;;;4.44;89.95;99471.84;10457580;28;20195;-75
2021/05/02 23:41:52;;;;;;;2.77;1.73;;;;;;;4.31;90.64;99473.06;10457483;28;20571;-75
2021/05/02 23:47:11;;;;;;;1.50;0.87;;;;;;;4.28;91.00;99478.41;10455589;28;20207;-75
2021/05/02 23:52:31;;;;;;;3.57;1.40;;;;;;;4.22;91.78;99483.31;10457034;28;20183;-75
2021/05/02 23:57:50;;;;;;;5.73;2.77;;;;;;;4.15;93.80;99485.84;10456704;28;20641;-74
